Manhattan, NY

09:49 EDT le 22 octobre 2014 (GMT -0400)
Murray Hill | Change Station
CLOSE
Current Station
Stations météorologiques personnelles
Location: New York, NY
Altitude: 98 ft
Stations météo à proximité

Alt. 98 ft 40.75 °N, 73.98 °W | Updated 2 seconds ago

Light Rain
Pluie fine
55.0 ° F
Paraît 55.0 ° F
N
14.0
Vent Variable Vent de Est
Gusts 16.0 mph

Aujourd'hui
Haut(e) -- | Bas -- ° F
--% Risque de précip.
Hier
Haut(e) -- | Bas -- ° F
Precip. -- pouce
7:14 AM 6:05 PM
Lune descendante, 2% visible
Pression 29.93 pouce
Visibilité 3.0 Miles terrestres
Nuages Nuageux 1500 ft
Couvert 2000 ft
Point de rosée 52 ° F
Humidité 90%
Précipitations 0.62 pouce
Profondeur de la couche neigeuse Non disponible.
UV 0 sur 12
Pollen .30 sur 12
PM2.5 Bon
Flu Activity Sporadic
METAR KNYC 221251Z AUTO 04009G15KT 360V100 3SM -RA BR BKN015 OVC020 12/11 A2996 RMK AO2 SLP135 P0006 T01220106 $

More Conditions Fewer Conditions

Pression 29.93 pouce
Visibilité 3.0 Miles terrestres
Nuages Nuageux 1500 ft
Couvert 2000 ft
Point de rosée 52 ° F
Humidité 90%
Précipitations 0.62 pouce
Profondeur de la couche neigeuse Non disponible.
UV 0 sur 12
Pollen .30 sur 12
PM2.5 Bon
Flu Activity Sporadic
METAR KNYC 221251Z AUTO 04009G15KT 360V100 3SM -RA BR BKN015 OVC020 12/11 A2996 RMK AO2 SLP135 P0006 T01220106 $

More Conditions Fewer Conditions

10-Day Weather Forecast

Almanac

Astronomie

Oct. 22, 2014 Lever Coucher
Temps réel 07:14 EDT 18:05 EDT
Crépuscule civil 06:46 EDT 18:33 EDT
Crépuscule nautique 06:15 EDT 19:05 EDT
Crépuscule astronomique 05:43 EDT 19:36 EDT
Lune 05:53 EDT 17:30 EDT
Durée de lumière visible 11h 46m
Longueur du jour
10h 50m
Tomorrow will be 2m 33s shorter.
Lune descendante, 2% of the Moon is Illuminated
Aujourd'hui
Lune descendante
Oct 23
Nouveau
Oct 30
Premier quartier
Nov 6
Pleine lune
Nov 14
Dernier quartier

Extrêmes aujourd'hui

State Highs State Lows

Community

WunderPhotos

Upload Photos

1,763,919 Photos téléchargées !

Nearby

Qualité de l'air

  Qualité de l'air Indice de la qualité de l'air Polluant
Hier Bon
PM2.5
Hier Bon
OZONE
Actuel Bon
PM2.5
mercredi Bon
PM2.5

Épaisseur de neige

Station Depth Altitude
Pas de nouvelles chutes de neige

Activité sismique

Ville Distance Mag. Time & Date
No recent earthquake activity has been reported nearby.
Minimum magnitude displayed is 2.5.

Températures des eaux côtières

Lieu Température
Sandy Hook, NJ 61.0 ° F
The Battery, NY 63.0 ° F
Bergen Point West Reach, NJ 62.1 ° F
Kings Point, NY 61.0 ° F

Stations météo à proximité